Huvudsida
METAR-TAF:

METAR-TAF

Flygplatser :

Saint-Denis, Réunion

latitud: 20-53S, longitud: 055-31E, höjd: 21 m

Aktuellt väderrapport

Denna rapport gjordes för 22 minuter sedan, klockan 01:30 UTC
Vind 14 kt från ost/sydost
Temperatur 21°C
Fuktighet 73%
Tryck 1023 hPa
Sikt 10 km eller mer
Få moln på en höjd av 3700 ft
Spridda moln på en höjd av 4700 ft

METAR: FMEE 190130Z AUTO 12014KT 9999 FEW037 SCT047 21/16 Q1023 NOSIG

Tid: 05:52 (01:52 UTC)

Väderprognos

Denna rapport gjordes för 2 timmar och 52 minuter sedan, klockan 23:00 UTC
Prognos gäller från 19 kl. 00 UTC till 20 kl. 06 UTC
Vind 10 kt från sydost
Sikt 10 km eller mer
Få moln på en höjd av 2000 ft
Temporärt
från 19 kl. 06 UTC till 19 kl. 16 UTC
Vind 20 kt från ost i byarna ända upp till 30 kt

TAF: FMEE 182300Z 1900/2006 13010KT 9999 FEW020 TEMPO 1906/1916 10020G30KT

Aktuella väderrapporter och prognoser från 4000 flygplatser (METAR- och TAF-rapporter).

De tillgängliga stationerna syns som gula och röda prickar på kartan.

För musen över prickarna för att se namnen på stationerna.

Klicka sedan för att få väderrapporter och prognoser.

För att ändra kartan: Klicka på de gröna knapparna med ett svart kors på för att zooma in; den gröna knappen med ett streck på för att zooma ut; eller på de gröna pilarna för angränsande kartor.


METAR-TAF: